createdAt,value
2022-12-03T00:02:00.378Z,10.98
2022-12-03T00:04:26.958Z,10.35
2022-12-03T00:06:53.737Z,9.57
2022-12-03T00:09:20.835Z,10.15
2022-12-03T00:11:47.376Z,9.52
2022-12-03T00:14:14.194Z,7.63
2022-12-03T00:16:40.801Z,8.60
2022-12-03T00:19:07.828Z,8.82
2022-12-03T00:21:34.716Z,8.90
2022-12-03T00:24:01.470Z,9.02
2022-12-03T00:26:28.041Z,9.48
2022-12-03T00:28:55.223Z,8.98
2022-12-03T00:31:23.428Z,8.05
2022-12-03T00:33:51.344Z,8.82
2022-12-03T00:36:19.132Z,9.07
2022-12-03T00:38:45.881Z,8.73
2022-12-03T00:41:13.085Z,8.25
2022-12-03T00:43:39.606Z,8.75
2022-12-03T00:46:06.312Z,8.68
2022-12-03T00:48:32.918Z,7.75
2022-12-03T00:50:59.549Z,7.88
2022-12-03T00:53:26.062Z,9.27
2022-12-03T00:55:52.676Z,8.05
2022-12-03T00:58:19.314Z,7.85
2022-12-03T01:00:45.831Z,9.20
2022-12-03T01:03:12.447Z,8.88
2022-12-03T01:05:39.316Z,8.20
2022-12-03T01:08:05.999Z,7.20
2022-12-03T01:10:32.530Z,7.25
2022-12-03T01:12:59.068Z,8.75
2022-12-03T01:15:25.590Z,7.80
2022-12-03T01:17:54.164Z,8.02
2022-12-03T01:20:20.762Z,7.50
2022-12-03T01:22:47.290Z,8.07
2022-12-03T01:25:13.890Z,7.28
2022-12-03T01:27:40.468Z,8.45
2022-12-03T01:30:07.810Z,7.88
2022-12-03T01:32:34.327Z,8.00
2022-12-03T01:35:00.974Z,7.65
2022-12-03T01:37:27.644Z,7.05
2022-12-03T01:39:54.762Z,7.28
2022-12-03T01:42:28.000Z,7.85
2022-12-03T01:44:56.738Z,7.75
2022-12-03T01:47:34.132Z,7.82
2022-12-03T01:50:15.642Z,7.95
2022-12-03T01:52:42.543Z,7.00
2022-12-03T01:55:16.446Z,8.68
2022-12-03T01:57:47.956Z,7.63
2022-12-03T02:00:17.018Z,7.57
2022-12-03T02:02:43.692Z,7.80
2022-12-03T02:05:21.563Z,7.57
2022-12-03T02:07:48.412Z,8.50
2022-12-03T02:10:16.386Z,7.22
2022-12-03T02:12:48.562Z,7.55
2022-12-03T02:15:15.238Z,8.07
2022-12-03T02:17:42.095Z,8.57
2022-12-03T02:20:10.330Z,8.15
2022-12-03T02:25:15.916Z,8.18
2022-12-03T02:27:42.903Z,8.57
2022-12-03T02:30:10.149Z,8.80
2022-12-03T02:32:37.504Z,7.85
2022-12-03T02:35:04.726Z,8.30
2022-12-03T02:37:35.738Z,8.85
2022-12-03T02:40:09.754Z,8.27
2022-12-03T02:42:37.178Z,8.80
2022-12-03T02:45:14.167Z,8.50
2022-12-03T02:47:45.501Z,7.85
2022-12-03T02:50:15.586Z,9.18
2022-12-03T02:52:44.005Z,7.78
2022-12-03T02:55:11.018Z,7.30
2022-12-03T02:57:38.411Z,8.80
2022-12-03T03:00:07.880Z,8.45
2022-12-03T03:02:36.557Z,7.88
2022-12-03T03:05:04.270Z,8.80
2022-12-03T03:07:30.935Z,8.38
2022-12-03T03:09:58.463Z,8.35
2022-12-03T03:12:25.085Z,8.73
2022-12-03T03:14:52.670Z,8.70
2022-12-03T03:17:19.501Z,8.95
2022-12-03T03:19:47.100Z,8.43
2022-12-03T03:22:13.790Z,8.65
2022-12-03T03:24:40.420Z,8.23
2022-12-03T03:27:07.108Z,8.57
2022-12-03T03:29:33.976Z,8.73
2022-12-03T03:32:01.753Z,7.75
2022-12-03T03:34:29.754Z,8.52
2022-12-03T03:36:56.366Z,8.02
2022-12-03T03:39:22.916Z,8.60
2022-12-03T03:41:49.494Z,8.20
2022-12-03T03:44:16.083Z,8.68
2022-12-03T03:46:42.973Z,8.73
2022-12-03T03:49:10.464Z,8.13
2022-12-03T03:51:37.537Z,8.35
2022-12-03T03:54:05.548Z,8.55
2022-12-03T03:56:32.921Z,7.65
2022-12-03T03:58:59.738Z,8.45
2022-12-03T04:01:27.168Z,8.65
2022-12-03T04:03:55.143Z,9.73
2022-12-03T04:06:21.726Z,9.10
2022-12-03T04:08:48.272Z,8.18
2022-12-03T04:11:33.477Z,8.77
2022-12-03T04:13:59.972Z,9.35
2022-12-03T04:16:26.616Z,9.02
2022-12-03T04:18:53.221Z,8.07
2022-12-03T04:21:40.463Z,8.50
2022-12-03T04:24:08.705Z,8.02
2022-12-03T04:29:20.682Z,7.93
2022-12-03T04:32:05.877Z,7.95
2022-12-03T04:34:51.502Z,8.48
2022-12-03T04:37:18.362Z,7.63
2022-12-03T04:39:44.963Z,7.93
2022-12-03T04:42:11.619Z,8.85
2022-12-03T04:44:38.200Z,9.00
2022-12-03T04:47:13.333Z,8.65
2022-12-03T04:49:42.315Z,7.88
2022-12-03T04:52:10.126Z,7.70
2022-12-03T04:54:37.237Z,8.10
2022-12-03T04:57:05.001Z,7.18
2022-12-03T05:01:59.164Z,7.38
2022-12-03T05:04:26.778Z,8.80
2022-12-03T05:06:53.299Z,9.07
2022-12-03T05:09:19.859Z,8.05
2022-12-03T05:11:46.383Z,8.73
2022-12-03T05:14:12.915Z,8.52
2022-12-03T05:16:39.835Z,8.60
2022-12-03T05:19:07.890Z,8.38
2022-12-03T05:21:34.710Z,9.07
2022-12-03T05:24:01.455Z,9.60
2022-12-03T05:26:28.224Z,9.02
2022-12-03T05:28:54.975Z,9.88
2022-12-03T05:31:21.642Z,10.05
2022-12-03T05:33:48.236Z,10.43
2022-12-03T05:36:15.156Z,9.80
2022-12-03T05:38:41.652Z,9.30
2022-12-03T05:41:28.133Z,8.77
2022-12-03T05:43:54.708Z,9.38
2022-12-03T05:46:21.312Z,9.27
2022-12-03T05:48:47.944Z,9.85
2022-12-03T05:51:14.752Z,9.82
2022-12-03T05:53:41.380Z,11.52
2022-12-03T05:56:08.031Z,10.48
2022-12-03T05:58:34.740Z,10.50
2022-12-03T06:01:01.299Z,10.18
2022-12-03T06:03:28.169Z,11.02
2022-12-03T06:05:55.051Z,13.10
2022-12-03T06:08:21.784Z,13.05
2022-12-03T06:10:48.327Z,16.80
2022-12-03T06:13:15.135Z,15.88
2022-12-03T06:15:44.036Z,12.07
2022-12-03T06:18:11.235Z,11.18
2022-12-03T06:20:37.841Z,11.95
2022-12-03T06:23:06.239Z,10.80
2022-12-03T06:25:33.408Z,11.20
2022-12-03T06:27:59.980Z,10.18
2022-12-03T06:30:26.479Z,12.30
2022-12-03T06:32:53.088Z,11.60
2022-12-03T06:35:19.673Z,9.27
2022-12-03T06:37:48.824Z,11.05
2022-12-03T06:40:16.726Z,11.20
2022-12-03T06:42:43.592Z,11.60
2022-12-03T06:45:10.439Z,10.48
2022-12-03T06:47:37.134Z,9.95
2022-12-03T06:50:05.398Z,10.50
2022-12-03T06:54:58.354Z,10.48
2022-12-03T06:57:24.932Z,11.10
2022-12-03T06:59:51.730Z,11.48
2022-12-03T07:02:18.666Z,10.85
2022-12-03T07:04:46.533Z,10.77
2022-12-03T07:07:13.579Z,10.88
2022-12-03T07:09:40.556Z,10.57
2022-12-03T07:12:07.532Z,10.73
2022-12-03T07:14:34.098Z,11.52
2022-12-03T07:17:00.600Z,13.80
2022-12-03T07:19:32.290Z,14.27
2022-12-03T07:21:59.223Z,19.73
2022-12-03T07:24:25.795Z,18.27
2022-12-03T07:26:52.404Z,16.50
2022-12-03T07:29:19.015Z,15.88
2022-12-03T07:31:45.808Z,13.50
2022-12-03T07:34:12.455Z,13.05
2022-12-03T07:36:39.479Z,11.88
2022-12-03T07:39:06.009Z,10.60
2022-12-03T07:41:32.578Z,12.80
2022-12-03T07:43:59.205Z,11.02
2022-12-03T07:46:25.825Z,11.70
2022-12-03T07:48:52.484Z,12.40
2022-12-03T07:51:19.082Z,12.82
2022-12-03T07:53:45.687Z,12.40
2022-12-03T07:56:12.348Z,11.88
2022-12-03T07:58:38.942Z,11.75
2022-12-03T08:01:05.773Z,11.85
2022-12-03T08:03:32.403Z,12.48
2022-12-03T08:05:59.006Z,12.35
2022-12-03T08:08:25.630Z,12.43
2022-12-03T08:10:52.267Z,13.13
2022-12-03T08:13:19.232Z,11.85
2022-12-03T08:15:46.078Z,11.02
2022-12-03T08:18:22.052Z,11.73
2022-12-03T08:20:51.702Z,12.02
2022-12-03T08:23:19.227Z,12.35
2022-12-03T08:25:46.445Z,11.88
2022-12-03T08:28:21.883Z,12.10
2022-12-03T08:31:02.018Z,11.00
2022-12-03T08:33:30.987Z,12.20
2022-12-03T08:35:57.494Z,12.57
2022-12-03T08:38:25.238Z,10.82
2022-12-03T08:40:52.810Z,12.88
2022-12-03T08:43:32.670Z,11.90
2022-12-03T08:45:59.530Z,11.30
2022-12-03T08:48:44.026Z,11.32
2022-12-03T08:51:26.684Z,11.38
2022-12-03T08:54:03.519Z,10.32
2022-12-03T08:56:31.171Z,11.52
2022-12-03T08:58:59.563Z,11.60
2022-12-03T09:01:43.806Z,11.45
2022-12-03T09:04:41.497Z,10.20
2022-12-03T09:07:08.339Z,7.25
2022-12-03T09:09:35.016Z,11.10
2022-12-03T09:12:02.322Z,10.82
2022-12-03T09:14:28.966Z,10.93
2022-12-03T09:16:56.416Z,11.02
2022-12-03T09:19:29.996Z,12.35
2022-12-03T09:21:56.882Z,11.15
2022-12-03T09:24:23.555Z,10.82
2022-12-03T09:26:50.164Z,10.38
2022-12-03T09:29:17.226Z,12.20
2022-12-03T09:31:44.285Z,10.63
2022-12-03T09:34:11.206Z,10.65
2022-12-03T09:36:37.842Z,10.88
2022-12-03T09:39:04.689Z,12.15
2022-12-03T09:41:31.443Z,11.88
2022-12-03T09:44:05.895Z,11.95
2022-12-03T09:46:36.544Z,11.15
2022-12-03T09:49:04.658Z,11.60
2022-12-03T09:51:36.241Z,11.13
2022-12-03T09:54:05.812Z,10.38
2022-12-03T09:56:42.055Z,9.73
2022-12-03T09:59:14.424Z,11.05
2022-12-03T10:01:41.609Z,10.82
2022-12-03T10:04:11.846Z,9.75
2022-12-03T10:06:45.857Z,9.80
2022-12-03T10:09:17.251Z,9.77
2022-12-03T10:11:44.156Z,9.57
2022-12-03T10:14:12.462Z,10.15
2022-12-03T10:16:40.556Z,7.72
2022-12-03T10:21:48.688Z,9.98
2022-12-03T10:24:19.865Z,8.32
2022-12-03T10:26:47.740Z,9.48
2022-12-03T10:29:34.265Z,9.45
2022-12-03T10:32:06.098Z,9.40
2022-12-03T10:34:34.985Z,10.65
2022-12-03T10:37:21.105Z,7.40
2022-12-03T10:40:11.005Z,9.02
2022-12-03T10:42:39.599Z,9.20
2022-12-03T10:45:22.560Z,8.40
2022-12-03T10:48:13.642Z,9.43
2022-12-03T10:50:54.641Z,10.27
2022-12-03T10:53:28.849Z,9.38
2022-12-03T10:55:59.398Z,11.63
2022-12-03T10:58:28.832Z,10.88
2022-12-03T11:00:57.763Z,10.52
2022-12-03T11:03:25.462Z,10.40
2022-12-03T11:05:52.849Z,9.68
2022-12-03T11:08:22.649Z,8.85
2022-12-03T11:11:24.043Z,9.30
2022-12-03T11:13:52.855Z,10.25
2022-12-03T11:16:41.363Z,10.43
2022-12-03T11:19:43.916Z,8.90
2022-12-03T11:22:10.638Z,9.07
2022-12-03T11:24:40.809Z,9.05
2022-12-03T11:27:16.734Z,9.10
2022-12-03T11:29:47.969Z,9.27
2022-12-03T11:32:39.578Z,8.40
2022-12-03T11:35:13.862Z,7.38
2022-12-03T11:37:40.516Z,9.00
2022-12-03T11:40:28.527Z,8.23
2022-12-03T11:42:55.125Z,7.70
2022-12-03T11:45:28.969Z,8.40
2022-12-03T11:47:58.510Z,8.30
2022-12-03T11:50:33.640Z,6.90
2022-12-03T11:53:15.936Z,7.78
2022-12-03T11:55:48.383Z,8.27
2022-12-03T11:58:30.289Z,7.65
2022-12-03T12:00:58.666Z,7.70
2022-12-03T12:03:26.967Z,7.85
2022-12-03T12:06:08.251Z,7.13
2022-12-03T12:08:36.615Z,4.47
2022-12-03T12:11:04.052Z,7.70
2022-12-03T12:13:30.459Z,8.43
2022-12-03T12:15:58.685Z,8.32
2022-12-03T12:18:41.550Z,7.40
2022-12-03T12:21:43.429Z,7.78
2022-12-03T12:24:32.951Z,8.77
2022-12-03T12:27:02.131Z,7.55
2022-12-03T12:29:28.749Z,8.30
2022-12-03T12:32:15.205Z,9.00
2022-12-03T12:34:47.793Z,7.22
2022-12-03T12:37:20.218Z,8.40
2022-12-03T12:39:46.852Z,7.70
2022-12-03T12:42:31.696Z,8.10
2022-12-03T12:45:01.068Z,8.13
2022-12-03T12:47:29.824Z,8.38
2022-12-03T12:49:56.998Z,9.20
2022-12-03T12:52:23.921Z,8.27
2022-12-03T12:54:50.788Z,8.07
2022-12-03T12:57:21.875Z,8.80
2022-12-03T12:59:48.894Z,8.70
2022-12-03T13:02:27.239Z,7.95
2022-12-03T13:04:53.889Z,8.23
2022-12-03T13:07:20.514Z,7.85
2022-12-03T13:09:48.950Z,8.80
2022-12-03T13:12:22.285Z,8.68
2022-12-03T13:14:49.210Z,7.82
2022-12-03T13:17:19.627Z,7.90
2022-12-03T13:19:49.406Z,7.75
2022-12-03T13:22:20.377Z,9.30
2022-12-03T13:27:17.319Z,7.40
2022-12-03T13:29:56.787Z,8.43
2022-12-03T13:32:30.831Z,8.50
2022-12-03T13:35:12.111Z,7.53
2022-12-03T13:37:38.764Z,8.50
2022-12-03T13:40:24.794Z,7.88
2022-12-03T13:42:52.540Z,8.90
2022-12-03T13:47:53.549Z,7.43
2022-12-03T13:50:40.988Z,7.60
2022-12-03T13:55:48.265Z,6.60
2022-12-03T13:58:14.871Z,7.72
2022-12-03T14:00:41.721Z,7.95
2022-12-03T14:03:08.738Z,7.75
2022-12-03T14:05:35.364Z,8.15
2022-12-03T14:08:02.474Z,7.47
2022-12-03T14:10:29.480Z,6.93
2022-12-03T14:12:56.658Z,7.38
2022-12-03T14:15:23.440Z,7.93
2022-12-03T14:17:50.011Z,8.20
2022-12-03T14:20:17.282Z,7.63
2022-12-03T14:22:43.808Z,8.15
2022-12-03T14:25:10.817Z,8.68
2022-12-03T14:27:37.431Z,7.95
2022-12-03T14:30:04.759Z,7.47
2022-12-03T14:32:31.272Z,8.60
2022-12-03T14:34:57.838Z,8.15
2022-12-03T14:37:24.471Z,7.93
2022-12-03T14:39:51.050Z,7.07
2022-12-03T14:42:18.242Z,7.43
2022-12-03T14:44:46.675Z,6.95
2022-12-03T14:47:13.892Z,7.00
2022-12-03T14:49:40.816Z,8.02
2022-12-03T14:52:12.131Z,7.30
2022-12-03T14:54:41.984Z,7.22
2022-12-03T14:57:08.872Z,7.65
2022-12-03T14:59:35.511Z,6.53
2022-12-03T15:02:02.230Z,6.88
2022-12-03T15:04:28.893Z,6.50
2022-12-03T15:06:55.477Z,6.60
2022-12-03T15:09:22.308Z,7.15
2022-12-03T15:11:48.857Z,6.68
2022-12-03T15:14:15.484Z,7.07
2022-12-03T15:16:42.113Z,7.43
2022-12-03T15:19:09.082Z,6.45
2022-12-03T15:21:35.847Z,5.68
2022-12-03T15:24:03.157Z,6.25
2022-12-03T15:26:30.282Z,6.65
2022-12-03T15:28:57.034Z,6.60
2022-12-03T15:31:23.736Z,6.70
2022-12-03T15:33:50.704Z,6.20
2022-12-03T15:36:17.684Z,6.13
2022-12-03T15:38:44.294Z,6.82
2022-12-03T15:41:32.822Z,7.35
2022-12-03T15:44:03.908Z,6.47
2022-12-03T15:46:31.504Z,6.05
2022-12-03T15:48:58.372Z,6.32
2022-12-03T15:51:25.342Z,5.97
2022-12-03T15:53:51.955Z,6.68
2022-12-03T15:56:18.501Z,6.10
2022-12-03T15:58:45.143Z,5.30
2022-12-03T16:01:13.630Z,6.60
2022-12-03T16:03:41.254Z,6.65
2022-12-03T16:06:08.754Z,3.78
2022-12-03T16:08:35.264Z,6.15
2022-12-03T16:11:01.729Z,6.03
2022-12-03T16:13:28.379Z,6.97
2022-12-03T16:15:55.042Z,6.03
2022-12-03T16:18:21.663Z,6.80
2022-12-03T16:20:48.263Z,6.00
2022-12-03T16:23:14.877Z,7.00
2022-12-03T16:25:41.584Z,5.63
2022-12-03T16:28:08.208Z,6.22
2022-12-03T16:30:35.746Z,6.22
2022-12-03T16:33:02.398Z,7.05
2022-12-03T16:35:28.963Z,6.32
2022-12-03T16:37:55.633Z,7.20
2022-12-03T16:40:22.646Z,6.60
2022-12-03T16:42:49.210Z,7.25
2022-12-03T16:45:21.766Z,7.65
2022-12-03T16:47:49.387Z,6.82
2022-12-03T16:50:21.911Z,7.30
2022-12-03T16:52:54.155Z,6.70
2022-12-03T16:55:20.778Z,6.72
2022-12-03T16:57:47.396Z,7.78
2022-12-03T17:00:14.582Z,7.30
2022-12-03T17:02:41.266Z,7.95
2022-12-03T17:05:08.167Z,7.15
2022-12-03T17:07:34.854Z,7.20
2022-12-03T17:10:01.464Z,8.43
2022-12-03T17:12:42.214Z,7.38
2022-12-03T17:15:14.670Z,8.57
2022-12-03T17:17:41.200Z,8.00
2022-12-03T17:20:08.695Z,8.02
2022-12-03T17:22:35.412Z,7.97
2022-12-03T17:25:02.053Z,7.78
2022-12-03T17:27:29.479Z,8.70
2022-12-03T17:29:56.313Z,8.60
2022-12-03T17:32:22.975Z,8.25
2022-12-03T17:34:49.524Z,8.00
2022-12-03T17:37:16.076Z,8.35
2022-12-03T17:39:42.721Z,8.27
2022-12-03T17:42:09.416Z,6.95
2022-12-03T17:44:35.977Z,8.35
2022-12-03T17:47:02.558Z,9.05
2022-12-03T17:49:31.698Z,8.20
2022-12-03T17:51:58.421Z,7.78
2022-12-03T17:54:37.989Z,8.75
2022-12-03T17:57:11.566Z,7.68
2022-12-03T17:59:38.161Z,9.77
2022-12-03T18:02:04.824Z,7.38
2022-12-03T18:04:31.455Z,8.95
2022-12-03T18:07:02.207Z,8.75
2022-12-03T18:09:29.203Z,8.85
2022-12-03T18:11:55.943Z,9.23
2022-12-03T18:14:22.467Z,7.60
2022-12-03T18:16:49.032Z,8.50
2022-12-03T18:19:15.713Z,8.23
2022-12-03T18:21:42.844Z,8.30
2022-12-03T18:24:09.617Z,10.60
2022-12-03T18:26:36.420Z,8.13
2022-12-03T18:29:03.371Z,10.00
2022-12-03T18:31:30.241Z,8.88
2022-12-03T18:33:56.965Z,7.95
2022-12-03T18:36:25.572Z,9.77
2022-12-03T18:38:55.178Z,9.63
2022-12-03T18:41:25.053Z,9.55
2022-12-03T18:43:51.657Z,9.77
2022-12-03T18:46:45.028Z,10.20
2022-12-03T18:49:07.241Z,8.70
2022-12-03T18:51:33.993Z,8.48
2022-12-03T18:54:00.599Z,9.27
2022-12-03T18:56:27.285Z,9.70
2022-12-03T18:58:53.933Z,9.23
2022-12-03T19:01:22.466Z,9.20
2022-12-03T19:03:49.912Z,9.35
2022-12-03T19:06:20.876Z,8.23
2022-12-03T19:08:54.069Z,9.57
2022-12-03T19:11:21.749Z,9.80
2022-12-03T19:13:48.677Z,8.65
2022-12-03T19:16:17.026Z,9.40
2022-12-03T19:18:44.370Z,9.65
2022-12-03T19:21:13.757Z,10.43
2022-12-03T19:23:40.690Z,10.68
2022-12-03T19:26:08.681Z,11.57
2022-12-03T19:28:35.877Z,10.65
2022-12-03T19:31:05.470Z,9.80
2022-12-03T19:33:32.977Z,11.15
2022-12-03T19:36:00.402Z,11.38
2022-12-03T19:38:28.493Z,10.57
2022-12-03T19:43:32.901Z,10.70
2022-12-03T19:46:12.497Z,12.10
2022-12-03T19:48:40.428Z,11.50
2022-12-03T19:51:33.049Z,10.23
2022-12-03T19:53:56.025Z,12.10
2022-12-03T19:56:23.697Z,13.73
2022-12-03T19:58:54.191Z,13.02
2022-12-03T20:01:24.321Z,12.77
2022-12-03T20:03:53.185Z,12.90
2022-12-03T20:06:23.212Z,12.52
2022-12-03T20:08:50.468Z,13.25
2022-12-03T20:11:21.831Z,13.48
2022-12-03T20:13:53.710Z,13.32
2022-12-03T20:16:21.207Z,14.07
2022-12-03T20:18:49.331Z,11.98
2022-12-03T20:21:17.777Z,11.52
2022-12-03T20:23:46.778Z,12.52
2022-12-03T20:26:18.595Z,11.52
2022-12-03T20:28:46.314Z,11.13
2022-12-03T20:31:15.885Z,10.90
2022-12-03T20:33:48.075Z,11.25
2022-12-03T20:36:16.799Z,12.52
2022-12-03T20:38:46.250Z,11.55
2022-12-03T20:41:20.276Z,10.95
2022-12-03T20:43:47.599Z,11.35
2022-12-03T20:46:26.069Z,10.75
2022-12-03T20:48:56.561Z,10.93
2022-12-03T20:51:26.853Z,11.30
2022-12-03T20:53:54.087Z,11.68
2022-12-03T20:56:24.180Z,11.45
2022-12-03T20:58:51.113Z,10.57
2022-12-03T21:01:26.321Z,10.75
2022-12-03T21:03:54.904Z,11.27
2022-12-03T21:06:22.818Z,11.63
2022-12-03T21:08:49.406Z,12.35
2022-12-03T21:11:18.405Z,10.82
2022-12-03T21:13:45.515Z,10.95
2022-12-03T21:16:14.507Z,10.80
2022-12-03T21:18:42.615Z,11.82
2022-12-03T21:21:11.660Z,10.10
2022-12-03T21:23:38.377Z,10.27
2022-12-03T21:26:07.183Z,11.02
2022-12-03T21:28:33.904Z,9.10
2022-12-03T21:31:06.019Z,11.55
2022-12-03T21:33:33.189Z,9.13
2022-12-03T21:36:00.378Z,10.20
2022-12-03T21:38:28.773Z,10.25
2022-12-03T21:40:56.085Z,9.40
2022-12-03T21:43:22.855Z,9.73
2022-12-03T21:45:49.986Z,9.02
2022-12-03T21:48:17.190Z,9.10
2022-12-03T21:50:44.095Z,9.75
2022-12-03T21:53:10.675Z,9.13
2022-12-03T21:55:41.044Z,11.27
2022-12-03T21:58:08.915Z,10.07
2022-12-03T22:00:35.935Z,10.65
2022-12-03T22:03:02.731Z,9.20
2022-12-03T22:05:29.366Z,9.70
2022-12-03T22:07:55.955Z,8.70
2022-12-03T22:10:22.592Z,9.38
2022-12-03T22:12:49.096Z,10.30
2022-12-03T22:15:19.133Z,9.77
2022-12-03T22:17:47.624Z,10.13
2022-12-03T22:20:14.758Z,6.32
2022-12-03T22:22:41.277Z,9.38
2022-12-03T22:25:08.261Z,10.35
2022-12-03T22:27:34.858Z,10.63
2022-12-03T22:30:01.708Z,10.82
2022-12-03T22:32:28.601Z,8.45
2022-12-03T22:34:55.231Z,10.23
2022-12-03T22:37:21.791Z,9.68
2022-12-03T22:39:48.415Z,9.57
2022-12-03T22:42:15.148Z,9.48
2022-12-03T22:44:42.177Z,9.20
2022-12-03T22:47:08.782Z,10.65
2022-12-03T22:49:35.419Z,10.25
2022-12-03T22:52:01.965Z,9.80
2022-12-03T22:54:28.548Z,9.52
2022-12-03T22:56:55.647Z,9.65
2022-12-03T22:59:22.269Z,8.52
2022-12-03T23:01:48.868Z,10.10
2022-12-03T23:04:15.518Z,9.23
2022-12-03T23:06:43.485Z,9.95
2022-12-03T23:09:10.122Z,10.07
2022-12-03T23:11:37.035Z,9.45
2022-12-03T23:14:03.671Z,10.43
2022-12-03T23:16:31.820Z,9.45
2022-12-03T23:18:59.898Z,9.55
2022-12-03T23:21:30.252Z,10.65
2022-12-03T23:23:58.791Z,9.35
2022-12-03T23:26:26.471Z,8.77
2022-12-03T23:28:53.446Z,8.50
2022-12-03T23:31:26.208Z,8.88
2022-12-03T23:33:53.695Z,9.57
2022-12-03T23:36:21.308Z,9.77
2022-12-03T23:38:47.923Z,10.05
2022-12-03T23:41:16.882Z,9.82
2022-12-03T23:43:43.531Z,9.50
2022-12-03T23:46:12.658Z,9.60
2022-12-03T23:48:39.594Z,9.52
2022-12-03T23:51:11.034Z,9.10
2022-12-03T23:53:38.419Z,10.77
2022-12-03T23:56:06.831Z,9.65
2022-12-03T23:58:33.942Z,8.50
